Time;durP1;ratioP1;P1;durP2;ratioP2;P2;SDS_P1;SDS_P2;PMS_P1;PMS_P2;Temp;Humidity;BMP_temperature;BMP_pressure;BME280_temperature;BME280_humidity;BME280_pressure;Samples;Min_cycle;Max_cycle;Signal;HPM_P1;HPM_P2
2021/09/22 00:01:07;;;;;;;10.23;4.50;;;16.20;99.90;;;;;;5067228;28;20020;-76
2021/09/22 00:03:36;;;;;;;10.32;4.85;;;16.20;99.90;;;;;;5072666;28;20025;-76
2021/09/22 00:06:08;;;;;;;9.32;4.45;;;16.20;99.90;;;;;;5090999;28;20098;-77
2021/09/22 00:08:42;;;;;;;9.70;4.57;;;16.20;99.90;;;;;;5060046;28;20032;-76
2021/09/22 00:11:34;;;;;;;;;;;;;;;;;;;;;
2021/09/22 00:27:41;;;;;;;;;;;;;;;;;;;;;
2021/09/22 00:36:45;;;;;;;;;;;;;;;;;;;;;
2021/09/22 00:39:40;;;;;;;6.10;5.40;;;16.30;99.90;;;;;;4945325;28;20047;-77
2021/09/22 00:42:33;;;;;;;5.50;4.95;;;16.30;99.90;;;;;;4942079;28;20045;-76
2021/09/22 00:52:17;;;;;;;9.73;4.82;;;16.30;99.90;;;;;;5027484;28;20048;-76
2021/09/22 00:58:48;;;;;;;6.00;5.03;;;16.00;99.90;;;;;;4945411;28;20047;-76
2021/09/22 01:02:01;;;;;;;9.25;4.82;;;16.00;99.90;;;;;;4951281;28;20035;-77
2021/09/22 01:11:33;;;;;;;;;;;;;;;;;;;;;
2021/09/22 01:14:08;;;;;;;6.63;4.50;;;15.90;99.90;;;;;;4970679;28;20034;-76
2021/09/22 01:20:42;;;;;;;6.40;5.20;;;15.90;99.90;;;;;;5079919;28;20562;-76
2021/09/22 01:22:49;;;;;;;8.25;5.50;;;15.90;99.90;;;;;;5080526;28;20043;-76
2021/09/22 01:25:24;;;;;;;5.57;5.07;;;15.90;99.90;;;;;;5096857;28;20024;-76
2021/09/22 01:27:54;;;;;;;4.90;4.32;;;15.90;99.90;;;;;;5098237;28;20023;-77
2021/09/22 01:33:34;;;;;;;6.28;4.90;;;15.90;99.90;;;;;;4980347;28;20041;-76
2021/09/22 01:36:02;;;;;;;5.95;5.43;;;15.90;99.90;;;;;;5062374;28;20032;-76
2021/09/22 01:38:30;;;;;;;6.38;5.07;;;15.70;99.90;;;;;;5085241;28;20028;-76
2021/09/22 01:41:11;;;;;;;5.90;5.40;;;15.70;99.90;;;;;;5073317;28;20150;-78
2021/09/22 01:43:56;;;;;;;;;;;;;;;;;;;;;
2021/09/22 01:46:45;;;;;;;6.07;5.22;;;15.70;99.90;;;;;;5060854;28;20031;-76
2021/09/22 01:49:22;;;;;;;5.53;5.03;;;15.70;99.90;;;;;;5066909;28;20040;-76
2021/09/22 01:52:06;;;;;;;;;;;;;;;;;;;;;
2021/09/22 01:54:35;;;;;;;8.27;5.10;;;15.60;99.90;;;;;;5066346;28;20030;-76
2021/09/22 01:57:02;;;;;;;5.05;4.55;;;15.70;99.90;;;;;;5072211;28;20034;-76
2021/09/22 01:59:28;;;;;;;5.43;4.93;;;15.60;99.90;;;;;;5076277;28;20082;-76
2021/09/22 02:01:54;;;;;;;17.20;5.25;;;15.60;99.90;;;;;;5078775;28;20025;-76
2021/09/22 02:04:23;;;;;;;6.50;4.32;;;15.60;99.90;;;;;;5082901;28;20118;-77
2021/09/22 02:07:00;;;;;;;5.80;5.30;;;15.70;99.90;;;;;;5078426;28;20086;-76
2021/09/22 02:09:26;;;;;;;5.05;4.55;;;15.80;99.90;;;;;;5095448;28;20088;-78
2021/09/22 02:11:52;;;;;;;6.43;5.35;;;15.80;99.90;;;;;;5085293;28;20067;-75
2021/09/22 02:14:56;;;;;;;5.43;4.57;;;15.80;99.90;;;;;;5070380;28;20037;-76
2021/09/22 02:17:32;;;;;;;5.47;4.30;;;15.80;99.90;;;;;;5065628;28;20025;-75
2021/09/22 02:19:58;;;;;;;4.72;4.32;;;15.80;99.90;;;;;;5075905;28;20031;-76
2021/09/22 02:22:27;;;;;;;4.82;4.32;;;15.80;99.90;;;;;;5085584;28;20028;-76
2021/09/22 02:24:56;;;;;;;5.65;4.78;;;15.80;99.90;;;;;;5083026;28;20040;-76
2021/09/22 02:27:51;;;;;;;9.57;5.25;;;15.90;99.90;;;;;;5079149;28;20028;-76
2021/09/22 02:30:26;;;;;;;12.02;6.22;;;15.90;99.90;;;;;;5084638;28;20040;-76
2021/09/22 02:32:53;;;;;;;5.13;4.45;;;15.80;99.90;;;;;;5065215;28;20031;-76
2021/09/22 02:38:57;;;;;;;5.10;4.70;;;15.80;99.90;;;;;;5078616;28;20700;-76
2021/09/22 02:41:25;;;;;;;8.18;4.80;;;15.70;99.90;;;;;;5067814;28;20556;-76
2021/09/22 02:44:23;;;;;;;7.28;4.93;;;15.60;99.90;;;;;;5093448;28;20071;-76
2021/09/22 02:47:11;;;;;;;6.50;4.53;;;15.50;99.90;;;;;;5071830;28;20028;-77
2021/09/22 02:49:45;;;;;;;5.45;4.85;;;15.50;99.90;;;;;;5061585;28;20107;-76
2021/09/22 02:52:14;;;;;;;6.68;4.50;;;15.50;99.90;;;;;;5088786;28;20047;-76
2021/09/22 02:54:43;;;;;;;4.95;4.55;;;15.40;99.90;;;;;;5086607;28;20066;-78
2021/09/22 02:57:13;;;;;;;6.32;4.75;;;15.30;99.90;;;;;;5078820;28;20055;-76
2021/09/22 02:59:47;;;;;;;8.40;5.07;;;15.30;99.90;;;;;;5064699;28;20142;-76
2021/09/22 03:02:13;;;;;;;5.90;5.05;;;15.30;99.90;;;;;;5065631;28;20032;-76
2021/09/22 03:04:39;;;;;;;5.85;5.25;;;15.30;99.90;;;;;;5079725;28;20028;-76
2021/09/22 03:07:17;;;;;;;5.38;4.78;;;15.30;99.90;;;;;;5073691;28;20055;-76
2021/09/22 03:09:52;;;;;;;6.85;4.88;;;15.30;99.90;;;;;;5075136;28;20382;-76
2021/09/22 03:12:34;;;;;;;;;;;;;;;;;;;;;
2021/09/22 03:15:00;;;;;;;5.97;5.43;;;15.30;99.90;;;;;;5088245;28;20027;-75
2021/09/22 03:17:51;;;;;;;4.55;4.25;;;15.30;99.90;;;;;;5082115;28;20024;-76
2021/09/22 03:20:40;;;;;;;5.18;4.65;;;15.30;99.90;;;;;;5072496;28;20075;-76
2021/09/22 03:23:09;;;;;;;6.55;5.95;;;15.30;99.90;;;;;;5074002;28;20036;-78
2021/09/22 03:25:43;;;;;;;7.18;4.80;;;15.30;99.90;;;;;;5071790;28;20042;-76
2021/09/22 03:28:09;;;;;;;7.10;4.82;;;15.40;99.90;;;;;;5083416;28;20028;-77
2021/09/22 03:30:35;;;;;;;5.85;5.35;;;15.40;99.90;;;;;;5083388;28;20103;-76
2021/09/22 03:33:02;;;;;;;6.43;4.72;;;15.40;99.90;;;;;;5054510;28;20032;-76
2021/09/22 03:35:28;;;;;;;4.38;3.97;;;15.40;99.90;;;;;;5076149;28;20059;-75
2021/09/22 03:37:54;;;;;;;6.55;4.57;;;15.40;99.90;;;;;;5081549;28;20036;-76
2021/09/22 03:40:28;;;;;;;8.18;4.70;;;15.40;99.90;;;;;;5088359;28;20029;-76
2021/09/22 03:42:59;;;;;;;4.93;4.50;;;15.40;99.90;;;;;;5084475;28;20054;-76
2021/09/22 03:45:26;;;;;;;4.97;4.40;;;15.40;99.90;;;;;;5078606;28;20143;-76
2021/09/22 03:47:52;;;;;;;5.32;4.88;;;15.30;99.90;;;;;;5071421;28;20302;-75
2021/09/22 03:50:25;;;;;;;5.80;5.18;;;15.30;99.90;;;;;;5082373;28;20021;-77
2021/09/22 03:52:53;;;;;;;8.30;4.80;;;15.30;99.90;;;;;;5064816;28;20036;-76
2021/09/22 03:56:01;;;;;;;6.15;5.05;;;15.30;99.90;;;;;;5061620;28;20024;-76
2021/09/22 03:58:27;;;;;;;4.85;4.45;;;15.40;99.90;;;;;;5065814;28;20041;-76
2021/09/22 04:00:59;;;;;;;5.07;4.47;;;15.40;99.90;;;;;;5074193;28;20060;-76
2021/09/22 04:03:25;;;;;;;4.88;4.47;;;15.40;99.90;;;;;;5071514;28;20024;-76
2021/09/22 04:05:51;;;;;;;5.35;4.85;;;15.50;99.90;;;;;;5056601;28;20020;-76
2021/09/22 04:08:17;;;;;;;5.32;4.80;;;15.50;99.90;;;;;;5083023;28;20109;-76
2021/09/22 04:10:46;;;;;;;7.10;5.70;;;15.50;99.90;;;;;;5089527;28;20031;-76
2021/09/22 04:13:15;;;;;;;6.13;5.57;;;15.50;99.90;;;;;;5052609;28;20313;-76
2021/09/22 04:16:00;;;;;;;4.70;4.25;;;15.40;99.90;;;;;;5046918;28;20047;-75
2021/09/22 04:19:33;;;;;;;;;;;;;;;;;;;;;
2021/09/22 04:25:26;;;;;;;5.75;4.70;;;15.50;99.90;;;;;;5087611;28;20039;-76
2021/09/22 04:31:30;;;;;;;;;;;15.30;99.90;;;;;;5067617;28;20612;-76
2021/09/22 04:46:56;;;;;;;4.60;4.20;;;15.40;99.90;;;;;;5034232;28;20112;-76
2021/09/22 04:49:29;;;;;;;7.13;5.57;;;15.40;99.90;;;;;;5039144;28;20044;-76
2021/09/22 04:52:05;;;;;;;7.60;5.53;;;15.30;99.90;;;;;;5074164;28;20040;-78
2021/09/22 04:58:44;;;;;;;6.18;4.47;;;15.30;99.90;;;;;;5071171;28;20044;-76
2021/09/22 05:01:13;;;;;;;6.15;4.72;;;15.20;99.90;;;;;;4937485;29;20051;-77
2021/09/22 05:03:39;;;;;;;8.23;6.72;;;15.30;99.90;;;;;;4972753;28;20049;-76
2021/09/22 05:06:35;;;;;;;;;;;;;;;;;;;;;
2021/09/22 05:09:05;;;;;;;6.55;5.68;;;15.30;99.90;;;;;;5071505;28;20529;-76
2021/09/22 05:21:59;;;;;;;9.35;5.05;;;15.50;99.90;;;;;;5069594;28;20098;-78
2021/09/22 05:24:25;;;;;;;4.72;4.10;;;15.60;99.90;;;;;;5055939;28;20028;-76
2021/09/22 05:27:08;;;;;;;6.78;4.57;;;15.70;99.90;;;;;;5072022;28;20062;-75
2021/09/22 05:29:35;;;;;;;5.85;4.97;;;15.70;99.90;;;;;;5070711;28;20041;-76
2021/09/22 05:32:18;;;;;;;7.68;4.85;;;15.70;99.90;;;;;;5073766;28;20036;-75
2021/09/22 05:34:47;;;;;;;6.13;4.93;;;15.70;99.90;;;;;;5071021;28;20037;-76
2021/09/22 05:37:54;;;;;;;7.72;4.38;;;15.80;99.90;;;;;;5064213;28;20081;-78
2021/09/22 05:50:46;;;;;;;;;;;;;;;;;;;;;
2021/09/22 06:03:10;;;;;;;4.90;4.10;;;16.20;99.90;;;;;;4956240;28;20045;-73
2021/09/22 06:05:39;;;;;;;5.85;4.82;;;16.30;99.90;;;;;;4955087;29;20027;-72
2021/09/22 06:08:06;;;;;;;11.15;4.88;;;16.30;99.90;;;;;;5020465;28;20347;-72
2021/09/22 06:10:33;;;;;;;4.88;4.47;;;16.30;99.90;;;;;;5073118;28;20039;-73
2021/09/22 06:12:59;;;;;;;10.35;4.85;;;16.40;99.90;;;;;;5075492;28;20070;-73
2021/09/22 06:15:25;;;;;;;5.28;4.53;;;16.40;99.90;;;;;;5075546;28;20025;-73
2021/09/22 06:17:54;;;;;;;6.45;5.22;;;16.50;99.90;;;;;;5075772;28;20032;-73
2021/09/22 06:20:20;;;;;;;5.07;4.63;;;16.50;99.90;;;;;;5073124;28;20048;-72
2021/09/22 06:22:46;;;;;;;5.88;5.03;;;16.40;99.90;;;;;;5077069;28;20045;-73
2021/09/22 06:25:13;;;;;;;6.00;4.07;;;16.50;99.90;;;;;;5060040;28;20029;-73
2021/09/22 06:27:40;;;;;;;5.43;4.93;;;16.60;99.90;;;;;;5055545;28;20036;-72
2021/09/22 06:30:07;;;;;;;12.45;4.70;;;16.70;99.90;;;;;;5070060;28;20044;-72
2021/09/22 06:32:33;;;;;;;11.30;5.53;;;16.70;99.90;;;;;;5074869;28;20108;-72
2021/09/22 06:34:59;;;;;;;13.43;5.53;;;16.80;99.90;;;;;;5074119;28;20482;-73
2021/09/22 06:37:25;;;;;;;5.43;4.93;;;16.90;99.90;;;;;;5074586;28;20029;-73
2021/09/22 06:39:51;;;;;;;5.15;3.95;;;17.00;99.90;;;;;;5089349;28;20048;-73
2021/09/22 06:42:16;;;;;;;7.90;4.13;;;17.20;99.90;;;;;;5075550;28;20021;-73
2021/09/22 06:44:42;;;;;;;6.50;4.70;;;17.10;99.90;;;;;;5075775;28;20027;-74
2021/09/22 06:47:08;;;;;;;7.88;4.65;;;17.00;99.90;;;;;;5075181;28;20069;-73
2021/09/22 06:49:34;;;;;;;7.97;4.20;;;17.00;99.90;;;;;;5075348;28;20035;-73
2021/09/22 06:52:00;;;;;;;5.07;4.43;;;17.10;99.90;;;;;;5074490;28;20032;-73
2021/09/22 06:54:26;;;;;;;8.27;5.40;;;17.00;99.90;;;;;;5078843;28;20029;-73
2021/09/22 06:56:52;;;;;;;6.20;5.50;;;17.10;99.90;;;;;;5066821;28;20021;-73
2021/09/22 06:59:18;;;;;;;7.13;4.70;;;17.00;99.90;;;;;;5057891;28;20025;-73
2021/09/22 07:01:45;;;;;;;7.45;4.65;;;17.00;99.90;;;;;;5057210;28;20024;-73
2021/09/22 07:04:11;;;;;;;6.85;5.57;;;17.10;99.90;;;;;;5074952;28;20090;-73
2021/09/22 07:06:37;;;;;;;5.28;4.72;;;17.00;99.90;;;;;;5075019;28;20482;-73
2021/09/22 07:09:03;;;;;;;9.30;4.53;;;17.00;99.90;;;;;;5073997;28;20032;-73
2021/09/22 07:11:29;;;;;;;5.25;4.82;;;17.10;99.90;;;;;;5083375;28;20024;-73
2021/09/22 07:13:55;;;;;;;6.13;4.85;;;17.10;99.90;;;;;;5073644;28;20081;-73
2021/09/22 07:16:21;;;;;;;5.22;4.78;;;17.00;99.90;;;;;;5070430;28;20052;-72
2021/09/22 07:18:47;;;;;;;6.07;4.40;;;17.10;99.90;;;;;;5068507;28;20451;-73
2021/09/22 07:21:14;;;;;;;5.32;4.82;;;17.20;99.90;;;;;;5058308;28;20165;-73
2021/09/22 07:23:41;;;;;;;8.25;4.40;;;17.40;99.90;;;;;;5066397;28;20115;-73
2021/09/22 07:26:10;;;;;;;7.15;6.47;;;17.50;99.90;;;;;;5072514;28;20028;-73
2021/09/22 07:28:36;;;;;;;7.18;4.78;;;17.70;99.90;;;;;;5073790;28;20155;-73
2021/09/22 07:31:03;;;;;;;13.52;4.93;;;18.00;99.90;;;;;;5070104;28;20024;-73
2021/09/22 07:33:29;;;;;;;6.43;5.13;;;18.20;99.90;;;;;;5070126;28;20097;-73
2021/09/22 07:35:56;;;;;;;6.95;6.32;;;18.40;99.90;;;;;;5071356;28;20104;-73
2021/09/22 07:38:23;;;;;;;7.28;6.35;;;18.80;99.90;;;;;;5069835;28;20036;-72
2021/09/22 07:40:49;;;;;;;14.63;11.07;;;18.90;99.90;;;;;;5070023;28;20475;-72
2021/09/22 07:43:15;;;;;;;20.60;16.80;;;19.10;99.90;;;;;;5089320;28;20055;-72
2021/09/22 07:45:42;;;;;;;16.20;13.75;;;19.30;99.90;;;;;;5069482;28;20028;-72
2021/09/22 07:48:07;;;;;;;19.15;12.05;;;19.40;99.90;;;;;;5069670;28;20033;-72
2021/09/22 07:50:34;;;;;;;8.65;7.22;;;19.50;99.90;;;;;;5065505;28;20040;-73
2021/09/22 07:53:00;;;;;;;12.13;6.43;;;19.60;99.90;;;;;;5063400;28;20028;-72
2021/09/22 07:59:29;;;;;;;15.02;5.53;;;19.60;99.90;;;;;;4999268;28;20108;-73
2021/09/22 08:01:55;;;;;;;8.00;6.70;;;19.30;99.90;;;;;;4990442;28;20048;-72
2021/09/22 08:04:58;;;;;;;10.65;9.45;;;19.20;99.90;;;;;;5003771;28;20084;-72
2021/09/22 08:11:45;;;;;;;;;;;;;;;;;;;;;
2021/09/22 08:14:20;;;;;;;8.68;7.78;;;19.40;99.90;;;;;;4912155;28;20039;-72
2021/09/22 08:17:14;;;;;;;7.43;5.07;;;19.50;99.90;;;;;;5010686;28;20065;-72
2021/09/22 08:20:01;;;;;;;;;;;;;;;;;;;;;
2021/09/22 08:26:27;;;;;;;5.32;4.40;;;19.80;99.90;;;;;;4956302;28;20039;-71
2021/09/22 08:29:09;;;;;;;4.70;4.30;;;19.90;99.90;;;;;;4994697;28;20132;-72
2021/09/22 08:37:55;;;;;;;9.55;8.55;;;19.90;99.90;;;;;;5054091;28;20094;-72
2021/09/22 08:40:24;;;;;;;9.65;4.95;;;20.20;99.90;;;;;;5053351;28;20056;-72
2021/09/22 08:42:51;;;;;;;13.02;5.50;;;20.30;99.90;;;;;;5065333;28;20079;-72
2021/09/22 08:45:17;;;;;;;12.15;5.35;;;20.10;99.90;;;;;;5072885;28;20021;-73
2021/09/22 08:47:47;;;;;;;10.88;5.78;;;20.10;99.90;;;;;;5073463;28;20029;-72
2021/09/22 08:50:17;;;;;;;9.20;3.97;;;20.10;99.90;;;;;;5071793;28;20024;-74
2021/09/22 08:52:44;;;;;;;10.02;5.18;;;20.30;99.90;;;;;;5072682;28;20036;-72
2021/09/22 08:55:11;;;;;;;10.68;4.75;;;20.30;99.90;;;;;;5073408;28;20029;-73
2021/09/22 08:57:37;;;;;;;8.13;4.80;;;20.20;99.90;;;;;;5072677;28;20054;-73
2021/09/22 09:00:09;;;;;;;8.07;5.78;;;20.20;99.90;;;;;;5079931;28;20031;-73
2021/09/22 09:02:48;;;;;;;19.70;5.72;;;20.20;99.90;;;;;;5071242;28;20068;-73
2021/09/22 09:05:19;;;;;;;9.48;4.60;;;20.10;99.90;;;;;;5062139;28;20058;-74
2021/09/22 09:07:49;;;;;;;10.32;4.65;;;20.10;99.90;;;;;;5069925;28;20299;-73
2021/09/22 09:10:17;;;;;;;9.30;5.07;;;20.00;99.90;;;;;;5069839;28;20016;-73
2021/09/22 09:13:06;;;;;;;10.48;5.60;;;19.80;99.90;;;;;;5071065;28;20033;-73
2021/09/22 09:15:48;;;;;;;6.07;4.00;;;19.80;99.90;;;;;;5071069;28;20032;-73
2021/09/22 09:18:21;;;;;;;10.27;5.10;;;19.80;99.90;;;;;;5068030;28;20028;-72
2021/09/22 09:20:49;;;;;;;7.15;4.22;;;19.80;99.90;;;;;;5069534;28;20064;-76
2021/09/22 09:23:18;;;;;;;6.53;5.03;;;19.90;99.90;;;;;;5068915;28;20020;-73
2021/09/22 09:25:56;;;;;;;6.53;4.07;;;19.90;99.90;;;;;;5071506;28;20029;-73
2021/09/22 09:28:40;;;;;;;5.20;4.53;;;19.90;99.90;;;;;;5066108;28;20031;-72
2021/09/22 09:31:11;;;;;;;9.15;4.45;;;19.80;99.90;;;;;;5067159;28;20028;-73
2021/09/22 09:33:44;;;;;;;9.48;5.30;;;19.70;99.90;;;;;;5069066;28;20487;-72
2021/09/22 09:36:42;;;;;;;6.35;5.10;;;19.70;99.90;;;;;;5069195;28;20498;-73
2021/09/22 09:39:30;;;;;;;;;;;;;;;;;;;;;
2021/09/22 09:42:38;;;;;;;5.38;4.43;;;19.60;99.90;;;;;;5070900;28;20027;-73
2021/09/22 09:45:52;;;;;;;7.10;4.38;;;19.80;99.90;;;;;;5067118;28;20084;-73
2021/09/22 09:48:03;;;;;;;9.98;5.05;;;19.90;99.90;;;;;;5066168;28;20041;-73
2021/09/22 09:53:52;;;;;;;7.20;4.75;;;20.10;99.90;;;;;;5070588;28;20040;-73
2021/09/22 09:56:19;;;;;;;10.13;5.35;;;20.30;99.90;;;;;;5068028;28;20024;-73
2021/09/22 09:58:49;;;;;;;10.85;4.47;;;20.40;99.90;;;;;;5074200;28;20086;-73
2021/09/22 10:01:18;;;;;;;7.20;5.07;;;20.30;99.90;;;;;;5058141;28;20376;-76
2021/09/22 10:03:46;;;;;;;6.55;5.05;;;20.30;99.90;;;;;;5063902;28;20028;-73
2021/09/22 10:06:13;;;;;;;5.85;5.10;;;20.30;99.90;;;;;;5069511;28;20052;-73
2021/09/22 10:08:54;;;;;;;6.65;4.57;;;20.30;99.90;;;;;;5075742;28;20483;-73
2021/09/22 10:14:17;;;;;;;5.57;4.78;;;20.30;99.90;;;;;;5052248;28;20028;-74
2021/09/22 10:16:48;;;;;;;8.15;4.85;;;20.40;99.90;;;;;;5073131;28;20039;-72
2021/09/22 10:19:22;;;;;;;7.60;5.07;;;20.40;99.90;;;;;;5070981;28;20449;-72
2021/09/22 10:22:10;;;;;;;6.78;5.38;;;20.60;99.90;;;;;;5073627;28;20016;-73
2021/09/22 10:24:43;;;;;;;5.47;4.97;;;20.70;99.90;;;;;;5071510;28;20037;-74
2021/09/22 10:27:20;;;;;;;6.90;4.85;;;20.70;99.90;;;;;;5082833;28;20533;-72
2021/09/22 10:30:03;;;;;;;5.57;5.15;;;20.80;99.90;;;;;;5072004;28;20029;-73
2021/09/22 10:32:45;;;;;;;11.90;7.75;;;20.60;99.90;;;;;;5075869;28;20054;-73
2021/09/22 10:35:26;;;;;;;7.13;6.40;;;20.40;99.90;;;;;;5072084;28;20033;-73
2021/09/22 10:38:01;;;;;;;8.90;6.00;;;20.40;99.90;;;;;;5074955;28;20024;-73
2021/09/22 10:40:38;;;;;;;6.07;5.47;;;20.30;99.90;;;;;;5073569;28;20025;-72
2021/09/22 10:43:24;;;;;;;6.53;4.78;;;20.40;99.90;;;;;;5075357;28;20047;-72
2021/09/22 10:46:05;;;;;;;7.18;4.97;;;20.40;99.90;;;;;;5069792;28;20534;-72
2021/09/22 10:48:33;;;;;;;8.20;5.78;;;20.40;99.90;;;;;;5069041;28;20028;-73
2021/09/22 10:51:04;;;;;;;11.02;5.93;;;20.40;99.90;;;;;;5074155;28;20393;-74
2021/09/22 10:53:35;;;;;;;5.13;4.65;;;20.40;99.90;;;;;;5074473;28;20444;-72
2021/09/22 10:56:17;;;;;;;5.78;4.63;;;20.50;99.90;;;;;;5072493;28;20029;-72
2021/09/22 10:58:52;;;;;;;8.02;5.63;;;20.30;99.90;;;;;;5072554;28;20028;-72
2021/09/22 11:01:44;;;;;;;5.28;4.78;;;20.20;99.90;;;;;;5068857;28;20142;-72
2021/09/22 11:04:11;;;;;;;5.43;4.75;;;20.20;99.90;;;;;;5065268;28;20048;-73
2021/09/22 11:06:47;;;;;;;4.45;4.07;;;20.30;99.90;;;;;;5066225;28;20025;-73
2021/09/22 11:09:22;;;;;;;5.88;4.65;;;20.20;99.90;;;;;;5073526;28;20052;-73
2021/09/22 11:14:42;;;;;;;7.95;4.82;;;20.00;99.90;;;;;;5077145;28;20033;-72
2021/09/22 11:17:22;;;;;;;7.38;4.78;;;19.80;99.90;;;;;;5071713;28;20123;-73
2021/09/22 11:19:58;;;;;;;8.55;4.90;;;19.90;99.90;;;;;;5069081;28;20433;-73
2021/09/22 11:22:30;;;;;;;16.33;4.90;;;20.10;99.90;;;;;;5066938;28;20028;-73
2021/09/22 11:25:01;;;;;;;5.22;4.22;;;20.20;99.90;;;;;;5070149;28;20016;-73
2021/09/22 11:27:31;;;;;;;4.75;4.35;;;20.40;99.90;;;;;;5061620;28;20039;-73
2021/09/22 11:30:09;;;;;;;5.90;5.40;;;20.50;99.90;;;;;;5069754;28;20414;-73
2021/09/22 11:32:45;;;;;;;6.85;4.45;;;20.60;99.90;;;;;;5057083;28;20028;-73
2021/09/22 11:35:17;;;;;;;5.90;4.65;;;20.50;99.90;;;;;;5070395;28;20096;-73
2021/09/22 11:37:44;;;;;;;;;;;20.40;99.90;;;;;;5068303;28;20100;-73
2021/09/22 11:40:10;;;;;;;10.73;5.22;;;20.40;99.90;;;;;;5069325;28;19920;-73
2021/09/22 11:43:00;;;;;;;6.03;5.10;;;20.50;99.90;;;;;;5074239;28;20028;-73
2021/09/22 11:45:39;;;;;;;7.80;4.75;;;20.60;99.90;;;;;;5067226;28;20553;-73
2021/09/22 11:48:06;;;;;;;8.35;5.05;;;20.70;99.90;;;;;;5066337;28;20028;-73
2021/09/22 11:50:52;;;;;;;11.63;4.63;;;20.80;99.90;;;;;;5066317;28;20107;-73
2021/09/22 11:53:21;;;;;;;7.50;4.72;;;21.00;99.90;;;;;;5068015;28;20032;-73
2021/09/22 11:55:50;;;;;;;5.70;5.03;;;21.10;99.90;;;;;;5069216;28;20066;-74
2021/09/22 11:58:18;;;;;;;7.82;5.25;;;21.20;99.90;;;;;;5058919;28;20032;-73
2021/09/22 12:00:48;;;;;;;6.72;4.30;;;21.20;99.90;;;;;;5054839;28;20128;-73
2021/09/22 12:03:15;;;;;;;7.55;4.63;;;21.10;99.90;;;;;;5062140;28;20028;-73
2021/09/22 12:05:42;;;;;;;4.80;4.40;;;21.10;99.90;;;;;;5074297;28;20111;-73
2021/09/22 12:08:09;;;;;;;10.82;4.90;;;21.10;99.90;;;;;;5069181;28;20032;-73
2021/09/22 12:10:40;;;;;;;6.40;5.18;;;21.20;99.90;;;;;;5067110;28;20043;-73
2021/09/22 12:13:06;;;;;;;6.53;4.57;;;21.20;99.90;;;;;;5068457;28;20047;-73
2021/09/22 12:15:36;;;;;;;5.53;4.95;;;21.20;99.90;;;;;;5068707;28;20036;-73
2021/09/22 12:18:02;;;;;;;5.72;4.93;;;21.30;99.90;;;;;;5071193;28;20478;-73
2021/09/22 12:20:30;;;;;;;5.15;4.68;;;21.40;99.90;;;;;;5059355;28;20039;-73
2021/09/22 12:23:05;;;;;;;11.60;5.70;;;21.40;99.90;;;;;;5050674;28;20016;-73
2021/09/22 12:25:32;;;;;;;4.68;4.15;;;21.40;99.90;;;;;;5071016;28;20065;-73
2021/09/22 12:28:16;;;;;;;7.18;5.60;;;21.30;99.90;;;;;;5071307;28;20024;-72
2021/09/22 12:30:42;;;;;;;5.90;5.00;;;21.40;99.90;;;;;;5066311;28;20024;-73
2021/09/22 12:33:10;;;;;;;4.70;4.30;;;21.30;99.90;;;;;;5087719;28;20410;-73
2021/09/22 12:35:44;;;;;;;11.48;5.00;;;21.40;99.90;;;;;;5070379;28;20028;-73
2021/09/22 12:38:15;;;;;;;5.00;4.60;;;21.50;99.90;;;;;;5072805;28;20028;-73
2021/09/22 12:40:44;;;;;;;12.27;5.35;;;21.60;99.90;;;;;;5065684;28;20082;-74
2021/09/22 12:43:35;;;;;;;4.53;4.13;;;21.60;99.90;;;;;;5074408;28;20021;-73
2021/09/22 12:46:15;;;;;;;5.88;5.25;;;21.50;99.90;;;;;;5067978;28;20028;-73
2021/09/22 12:48:42;;;;;;;11.07;5.32;;;21.60;99.90;;;;;;5081846;28;20040;-73
2021/09/22 12:51:15;;;;;;;5.68;4.20;;;21.60;99.90;;;;;;5066984;28;20051;-73
2021/09/22 12:53:44;;;;;;;8.25;4.28;;;21.60;99.90;;;;;;5069745;28;20028;-74
2021/09/22 12:56:13;;;;;;;7.72;4.10;;;21.60;99.90;;;;;;5070344;28;20060;-73
2021/09/22 12:58:39;;;;;;;8.77;4.60;;;21.50;99.90;;;;;;5065183;28;20116;-73
2021/09/22 13:01:28;;;;;;;6.22;4.47;;;21.40;99.90;;;;;;5060727;28;20479;-73
2021/09/22 13:04:01;;;;;;;7.10;4.00;;;21.40;99.90;;;;;;5071212;28;20045;-73
2021/09/22 13:06:32;;;;;;;6.15;5.47;;;21.40;99.90;;;;;;5073638;28;20028;-73
2021/09/22 13:08:58;;;;;;;6.05;5.35;;;21.40;99.90;;;;;;5065224;28;20159;-73
2021/09/22 13:11:33;;;;;;;10.55;4.45;;;21.50;99.90;;;;;;5071423;28;20035;-73
2021/09/22 13:14:05;;;;;;;5.20;4.70;;;21.50;99.90;;;;;;5078426;28;20359;-73
2021/09/22 13:16:38;;;;;;;10.48;4.70;;;21.50;99.90;;;;;;5070417;28;20462;-73
2021/09/22 13:19:14;;;;;;;14.25;4.97;;;21.50;99.90;;;;;;5071233;28;20020;-78
2021/09/22 13:21:42;;;;;;;5.47;4.25;;;21.60;99.90;;;;;;5073029;28;20026;-73
2021/09/22 13:24:11;;;;;;;8.45;4.63;;;21.50;99.90;;;;;;5084031;28;20025;-73
2021/09/22 13:26:39;;;;;;;5.30;4.28;;;21.50;99.90;;;;;;5071856;28;20452;-73
2021/09/22 13:29:10;;;;;;;7.32;4.80;;;21.40;99.90;;;;;;5071071;28;20031;-73
2021/09/22 13:31:39;;;;;;;6.43;4.33;;;21.40;99.90;;;;;;5089753;28;20036;-76
2021/09/22 13:34:16;;;;;;;5.85;5.30;;;21.30;99.90;;;;;;5067867;28;20035;-74
2021/09/22 13:36:42;;;;;;;5.13;4.72;;;21.10;99.90;;;;;;5076868;28;20428;-73
2021/09/22 13:39:20;;;;;;;5.07;4.65;;;21.10;99.90;;;;;;5074820;28;20021;-73
2021/09/22 13:41:56;;;;;;;6.80;4.95;;;21.00;99.90;;;;;;5071631;28;20025;-73
2021/09/22 13:44:22;;;;;;;5.82;4.75;;;21.10;99.90;;;;;;5071748;28;20324;-73
2021/09/22 13:46:49;;;;;;;4.90;4.50;;;21.20;99.90;;;;;;5067572;28;20035;-73
2021/09/22 13:49:16;;;;;;;6.13;4.88;;;21.20;99.90;;;;;;5071274;28;20025;-73
2021/09/22 13:51:44;;;;;;;5.50;4.43;;;21.20;99.90;;;;;;5076834;28;20028;-74
2021/09/22 13:54:12;;;;;;;5.78;5.20;;;21.20;99.90;;;;;;5073619;28;20101;-74
2021/09/22 13:56:38;;;;;;;10.23;5.43;;;21.10;99.90;;;;;;5067495;28;20082;-74
2021/09/22 13:59:06;;;;;;;8.32;5.05;;;21.10;99.90;;;;;;5065515;28;20021;-75
2021/09/22 14:01:33;;;;;;;4.78;4.32;;;21.10;99.90;;;;;;5057217;28;20715;-75
2021/09/22 14:03:59;;;;;;;6.10;5.38;;;21.00;99.90;;;;;;5060609;28;20117;-74
2021/09/22 14:06:25;;;;;;;5.88;4.88;;;21.00;99.90;;;;;;5055361;28;20032;-76
2021/09/22 14:08:51;;;;;;;10.82;5.07;;;21.00;99.90;;;;;;5059876;28;20028;-75
2021/09/22 14:11:17;;;;;;;4.75;4.35;;;21.00;99.90;;;;;;5059239;28;20021;-75
2021/09/22 14:13:43;;;;;;;8.35;4.93;;;21.00;99.90;;;;;;5060141;28;20016;-75
2021/09/22 14:16:11;;;;;;;4.88;4.43;;;21.00;99.90;;;;;;5060825;28;20612;-75
2021/09/22 14:18:37;;;;;;;9.15;4.20;;;21.20;99.90;;;;;;5058801;28;20028;-74
2021/09/22 14:21:03;;;;;;;9.07;3.80;;;21.20;99.90;;;;;;5059794;28;20029;-74
2021/09/22 14:23:29;;;;;;;9.05;4.60;;;21.30;99.90;;;;;;5060840;28;20033;-78
2021/09/22 14:25:56;;;;;;;9.13;4.63;;;21.30;99.90;;;;;;5061587;28;20027;-75
2021/09/22 14:28:23;;;;;;;4.75;4.35;;;21.30;99.90;;;;;;5065688;28;20040;-74
2021/09/22 14:31:07;;;;;;;5.43;4.38;;;21.10;99.90;;;;;;5071125;28;20393;-75
2021/09/22 14:33:33;;;;;;;6.30;5.35;;;21.00;99.90;;;;;;5072644;28;20078;-75
2021/09/22 14:35:59;;;;;;;14.18;5.78;;;20.90;99.90;;;;;;5076886;28;20521;-75
2021/09/22 14:38:25;;;;;;;6.43;4.28;;;20.90;99.90;;;;;;5071612;28;20033;-75
2021/09/22 14:40:51;;;;;;;6.82;5.50;;;20.80;99.90;;;;;;5069404;28;20033;-75
2021/09/22 14:43:18;;;;;;;5.70;4.95;;;20.90;99.90;;;;;;5079723;28;20028;-75
2021/09/22 14:45:44;;;;;;;6.53;4.43;;;20.80;99.90;;;;;;5079455;28;20021;-74
2021/09/22 14:48:17;;;;;;;9.90;5.38;;;20.80;99.90;;;;;;5082761;28;20024;-75
2021/09/22 14:50:44;;;;;;;5.05;4.55;;;20.70;99.90;;;;;;5077508;28;20028;-75
2021/09/22 14:53:10;;;;;;;7.22;5.65;;;20.70;99.90;;;;;;5075241;28;20055;-74
2021/09/22 14:55:35;;;;;;;7.38;5.68;;;20.70;99.90;;;;;;5071440;28;20098;-75
2021/09/22 14:58:02;;;;;;;13.50;6.00;;;20.60;99.90;;;;;;5092480;28;20021;-75
2021/09/22 15:00:29;;;;;;;15.57;7.32;;;20.60;99.90;;;;;;5065978;28;20029;-74
2021/09/22 15:02:55;;;;;;;13.80;6.18;;;20.60;99.90;;;;;;5070848;28;20032;-74
2021/09/22 15:05:25;;;;;;;7.32;5.07;;;20.60;99.90;;;;;;5069059;28;20421;-76
2021/09/22 15:07:51;;;;;;;8.95;4.90;;;20.50;99.90;;;;;;5076753;28;20036;-74
2021/09/22 15:10:18;;;;;;;5.30;4.88;;;20.40;99.90;;;;;;5067455;28;20492;-74
2021/09/22 15:12:44;;;;;;;7.50;5.75;;;20.30;99.90;;;;;;5071062;28;20024;-75
2021/09/22 15:15:12;;;;;;;5.13;4.63;;;20.30;99.90;;;;;;5075692;28;20028;-78
2021/09/22 15:17:39;;;;;;;5.30;4.90;;;20.30;99.90;;;;;;5076189;28;20048;-74
2021/09/22 15:20:06;;;;;;;10.40;6.15;;;20.30;99.90;;;;;;5069478;28;20031;-76
2021/09/22 15:22:32;;;;;;;7.82;4.55;;;20.30;99.90;;;;;;5071757;28;20123;-74
2021/09/22 15:24:58;;;;;;;9.43;5.35;;;20.30;99.90;;;;;;5067037;28;20024;-75
2021/09/22 15:27:24;;;;;;;6.05;5.60;;;20.20;99.90;;;;;;5075918;28;20024;-75
2021/09/22 15:29:57;;;;;;;9.60;5.10;;;20.30;99.90;;;;;;5067526;28;20460;-75
2021/09/22 15:32:24;;;;;;;6.78;5.00;;;20.30;99.90;;;;;;5068591;28;20111;-74
2021/09/22 15:34:50;;;;;;;13.18;5.60;;;20.30;99.90;;;;;;5072187;28;20505;-74
2021/09/22 15:37:16;;;;;;;12.05;5.63;;;20.50;99.90;;;;;;5069345;28;20055;-74